sensor_id;sensor_type;location;lat;lon;timestamp;temperature;humidity
10123;DHT22;5101;49.038;8.710;2022-12-07T00:00:49;6.00;99.90
10123;DHT22;5101;49.038;8.710;2022-12-07T00:03:14;6.00;99.90
10123;DHT22;5101;49.038;8.710;2022-12-07T00:05:40;5.90;99.90
10123;DHT22;5101;49.038;8.710;2022-12-07T00:08:05;5.90;99.90
10123;DHT22;5101;49.038;8.710;2022-12-07T00:10:33;5.90;99.90
10123;DHT22;5101;49.038;8.710;2022-12-07T00:12:59;5.90;99.90
10123;DHT22;5101;49.038;8.710;2022-12-07T00:15:24;5.90;99.90
10123;DHT22;5101;49.038;8.710;2022-12-07T00:17:50;6.10;99.90
10123;DHT22;5101;49.038;8.710;2022-12-07T00:20:15;5.90;99.90
10123;DHT22;5101;49.038;8.710;2022-12-07T00:22:41;5.90;99.90
10123;DHT22;5101;49.038;8.710;2022-12-07T00:25:06;5.90;99.90
10123;DHT22;5101;49.038;8.710;2022-12-07T00:27:32;5.90;99.90
10123;DHT22;5101;49.038;8.710;2022-12-07T00:29:57;5.80;99.90
10123;DHT22;5101;49.038;8.710;2022-12-07T00:32:23;5.90;99.90
10123;DHT22;5101;49.038;8.710;2022-12-07T00:34:48;5.80;99.90
10123;DHT22;5101;49.038;8.710;2022-12-07T00:37:14;5.80;99.90
10123;DHT22;5101;49.038;8.710;2022-12-07T00:39:39;5.90;99.90
10123;DHT22;5101;49.038;8.710;2022-12-07T00:42:05;5.90;99.90
10123;DHT22;5101;49.038;8.710;2022-12-07T00:44:30;5.80;99.90
10123;DHT22;5101;49.038;8.710;2022-12-07T00:46:56;5.80;99.90
10123;DHT22;5101;49.038;8.710;2022-12-07T00:49:21;5.80;99.90
10123;DHT22;5101;49.038;8.710;2022-12-07T00:51:50;5.80;99.90
10123;DHT22;5101;49.038;8.710;2022-12-07T00:54:15;5.70;99.90
10123;DHT22;5101;49.038;8.710;2022-12-07T00:56:41;5.80;99.90
10123;DHT22;5101;49.038;8.710;2022-12-07T00:59:06;5.70;99.90
10123;DHT22;5101;49.038;8.710;2022-12-07T01:01:35;6.00;99.90
10123;DHT22;5101;49.038;8.710;2022-12-07T01:04:01;5.80;99.90
10123;DHT22;5101;49.038;8.710;2022-12-07T01:06:28;5.80;99.90
10123;DHT22;5101;49.038;8.710;2022-12-07T01:08:54;5.70;99.90
10123;DHT22;5101;49.038;8.710;2022-12-07T01:11:26;5.70;99.90
10123;DHT22;5101;49.038;8.710;2022-12-07T01:13:53;5.70;99.90
10123;DHT22;5101;49.038;8.710;2022-12-07T01:16:20;5.70;99.90
10123;DHT22;5101;49.038;8.710;2022-12-07T01:18:48;5.70;99.90
10123;DHT22;5101;49.038;8.710;2022-12-07T01:21:21;5.70;99.90
10123;DHT22;5101;49.038;8.710;2022-12-07T01:23:48;5.70;99.90
10123;DHT22;5101;49.038;8.710;2022-12-07T01:26:16;5.90;99.90
10123;DHT22;5101;49.038;8.710;2022-12-07T01:28:42;5.60;99.90
10123;DHT22;5101;49.038;8.710;2022-12-07T01:31:11;5.80;99.90
10123;DHT22;5101;49.038;8.710;2022-12-07T01:33:38;5.60;99.90
10123;DHT22;5101;49.038;8.710;2022-12-07T01:36:08;5.60;99.90
10123;DHT22;5101;49.038;8.710;2022-12-07T01:38:38;5.60;99.90
10123;DHT22;5101;49.038;8.710;2022-12-07T01:41:04;5.80;99.90
10123;DHT22;5101;49.038;8.710;2022-12-07T01:43:31;5.60;99.90
10123;DHT22;5101;49.038;8.710;2022-12-07T01:45:57;5.60;99.90
10123;DHT22;5101;49.038;8.710;2022-12-07T01:48:36;5.60;99.90
10123;DHT22;5101;49.038;8.710;2022-12-07T01:51:09;5.60;99.90
10123;DHT22;5101;49.038;8.710;2022-12-07T01:53:38;5.80;99.90
10123;DHT22;5101;49.038;8.710;2022-12-07T01:56:07;5.60;99.90
10123;DHT22;5101;49.038;8.710;2022-12-07T01:58:34;5.60;99.90
10123;DHT22;5101;49.038;8.710;2022-12-07T02:01:00;5.80;99.90
10123;DHT22;5101;49.038;8.710;2022-12-07T02:03:32;5.60;99.90
10123;DHT22;5101;49.038;8.710;2022-12-07T02:05:59;5.60;99.90
10123;DHT22;5101;49.038;8.710;2022-12-07T02:08:25;5.80;99.90
10123;DHT22;5101;49.038;8.710;2022-12-07T02:10:51;5.60;99.90
10123;DHT22;5101;49.038;8.710;2022-12-07T02:13:19;5.60;99.90
10123;DHT22;5101;49.038;8.710;2022-12-07T02:16:10;5.60;99.90
10123;DHT22;5101;49.038;8.710;2022-12-07T02:21:52;5.60;99.90
10123;DHT22;5101;49.038;8.710;2022-12-07T02:24:53;5.60;99.90
10123;DHT22;5101;49.038;8.710;2022-12-07T02:30:21;5.60;99.90
10123;DHT22;5101;49.038;8.710;2022-12-07T02:33:17;5.50;99.90
10123;DHT22;5101;49.038;8.710;2022-12-07T02:35:54;5.50;99.90
10123;DHT22;5101;49.038;8.710;2022-12-07T02:41:26;5.40;99.90
10123;DHT22;5101;49.038;8.710;2022-12-07T02:43:55;5.60;99.90
10123;DHT22;5101;49.038;8.710;2022-12-07T02:46:44;5.40;99.90
10123;DHT22;5101;49.038;8.710;2022-12-07T02:49:12;5.40;99.90
10123;DHT22;5101;49.038;8.710;2022-12-07T02:51:45;5.60;99.90
10123;DHT22;5101;49.038;8.710;2022-12-07T02:54:16;5.30;99.90
10123;DHT22;5101;49.038;8.710;2022-12-07T02:59:32;5.30;99.90
10123;DHT22;5101;49.038;8.710;2022-12-07T03:10:27;5.30;99.90
10123;DHT22;5101;49.038;8.710;2022-12-07T03:15:47;5.20;99.90
10123;DHT22;5101;49.038;8.710;2022-12-07T03:18:17;5.20;99.90
10123;DHT22;5101;49.038;8.710;2022-12-07T03:20:44;5.20;99.90
10123;DHT22;5101;49.038;8.710;2022-12-07T03:23:12;5.20;99.90
10123;DHT22;5101;49.038;8.710;2022-12-07T03:25:43;5.20;99.90
10123;DHT22;5101;49.038;8.710;2022-12-07T03:28:12;5.20;99.90
10123;DHT22;5101;49.038;8.710;2022-12-07T03:33:23;5.20;99.90
10123;DHT22;5101;49.038;8.710;2022-12-07T03:36:19;5.20;99.90
10123;DHT22;5101;49.038;8.710;2022-12-07T03:38:49;5.20;99.90
10123;DHT22;5101;49.038;8.710;2022-12-07T03:41:25;5.20;99.90
10123;DHT22;5101;49.038;8.710;2022-12-07T03:43:54;5.20;99.90
10123;DHT22;5101;49.038;8.710;2022-12-07T03:49:24;5.20;99.90
10123;DHT22;5101;49.038;8.710;2022-12-07T03:51:56;5.20;99.90
10123;DHT22;5101;49.038;8.710;2022-12-07T03:57:04;5.20;99.90
10123;DHT22;5101;49.038;8.710;2022-12-07T03:59:30;5.20;99.90
10123;DHT22;5101;49.038;8.710;2022-12-07T04:01:59;5.20;99.90
10123;DHT22;5101;49.038;8.710;2022-12-07T04:04:26;5.20;99.90
10123;DHT22;5101;49.038;8.710;2022-12-07T04:06:52;5.10;99.90
10123;DHT22;5101;49.038;8.710;2022-12-07T04:09:18;5.10;99.90
10123;DHT22;5101;49.038;8.710;2022-12-07T04:11:43;5.10;99.90
10123;DHT22;5101;49.038;8.710;2022-12-07T04:14:09;5.10;99.90
10123;DHT22;5101;49.038;8.710;2022-12-07T04:16:49;5.10;99.90
10123;DHT22;5101;49.038;8.710;2022-12-07T04:19:15;5.10;99.90
10123;DHT22;5101;49.038;8.710;2022-12-07T04:21:41;5.10;99.90
10123;DHT22;5101;49.038;8.710;2022-12-07T04:24:06;5.10;99.90
10123;DHT22;5101;49.038;8.710;2022-12-07T04:26:32;5.10;99.90
10123;DHT22;5101;49.038;8.710;2022-12-07T04:28:57;5.10;99.90
10123;DHT22;5101;49.038;8.710;2022-12-07T04:31:23;5.10;99.90
10123;DHT22;5101;49.038;8.710;2022-12-07T04:33:48;5.10;99.90
10123;DHT22;5101;49.038;8.710;2022-12-07T04:36:14;5.30;99.90
10123;DHT22;5101;49.038;8.710;2022-12-07T04:38:39;5.40;99.90
10123;DHT22;5101;49.038;8.710;2022-12-07T04:41:09;5.10;99.90
10123;DHT22;5101;49.038;8.710;2022-12-07T04:43:34;5.30;99.90
10123;DHT22;5101;49.038;8.710;2022-12-07T04:46:00;5.20;99.90
10123;DHT22;5101;49.038;8.710;2022-12-07T04:48:26;5.10;99.90
10123;DHT22;5101;49.038;8.710;2022-12-07T04:50:52;5.30;99.90
10123;DHT22;5101;49.038;8.710;2022-12-07T04:53:18;5.10;99.90
10123;DHT22;5101;49.038;8.710;2022-12-07T04:55:44;5.00;99.90
10123;DHT22;5101;49.038;8.710;2022-12-07T04:58:10;5.00;99.90
10123;DHT22;5101;49.038;8.710;2022-12-07T05:00:35;5.00;99.90
10123;DHT22;5101;49.038;8.710;2022-12-07T05:03:01;5.00;99.90
10123;DHT22;5101;49.038;8.710;2022-12-07T05:05:26;5.00;99.90
10123;DHT22;5101;49.038;8.710;2022-12-07T05:07:53;5.00;99.90
10123;DHT22;5101;49.038;8.710;2022-12-07T05:10:19;5.00;99.90
10123;DHT22;5101;49.038;8.710;2022-12-07T05:12:44;5.00;99.90
10123;DHT22;5101;49.038;8.710;2022-12-07T05:15:11;5.00;99.90
10123;DHT22;5101;49.038;8.710;2022-12-07T05:17:36;5.00;99.90
10123;DHT22;5101;49.038;8.710;2022-12-07T05:20:02;5.00;99.90
10123;DHT22;5101;49.038;8.710;2022-12-07T05:22:28;5.00;99.90
10123;DHT22;5101;49.038;8.710;2022-12-07T05:24:54;5.00;99.90
10123;DHT22;5101;49.038;8.710;2022-12-07T05:27:20;5.00;99.90
10123;DHT22;5101;49.038;8.710;2022-12-07T05:29:46;5.00;99.90
10123;DHT22;5101;49.038;8.710;2022-12-07T05:32:11;4.90;99.90
10123;DHT22;5101;49.038;8.710;2022-12-07T05:34:37;5.00;99.90
10123;DHT22;5101;49.038;8.710;2022-12-07T05:37:02;5.00;99.90
10123;DHT22;5101;49.038;8.710;2022-12-07T05:39:28;4.90;99.90
10123;DHT22;5101;49.038;8.710;2022-12-07T05:41:53;4.90;99.90
10123;DHT22;5101;49.038;8.710;2022-12-07T05:44:41;4.90;99.90
10123;DHT22;5101;49.038;8.710;2022-12-07T05:47:07;4.90;99.90
10123;DHT22;5101;49.038;8.710;2022-12-07T05:49:33;4.90;99.90
10123;DHT22;5101;49.038;8.710;2022-12-07T05:51:58;5.00;99.90
10123;DHT22;5101;49.038;8.710;2022-12-07T05:54:24;5.00;99.90
10123;DHT22;5101;49.038;8.710;2022-12-07T05:56:50;5.00;99.90
10123;DHT22;5101;49.038;8.710;2022-12-07T05:59:15;5.00;99.90
10123;DHT22;5101;49.038;8.710;2022-12-07T06:01:48;5.00;99.90
10123;DHT22;5101;49.038;8.710;2022-12-07T06:04:13;5.00;99.90
10123;DHT22;5101;49.038;8.710;2022-12-07T06:06:39;5.00;99.90
10123;DHT22;5101;49.038;8.710;2022-12-07T06:09:04;5.30;99.90
10123;DHT22;5101;49.038;8.710;2022-12-07T06:11:30;5.00;99.90
10123;DHT22;5101;49.038;8.710;2022-12-07T06:14:14;5.00;99.90
10123;DHT22;5101;49.038;8.710;2022-12-07T06:16:40;5.00;99.90
10123;DHT22;5101;49.038;8.710;2022-12-07T06:19:06;5.20;99.90
10123;DHT22;5101;49.038;8.710;2022-12-07T06:21:31;5.00;99.90
10123;DHT22;5101;49.038;8.710;2022-12-07T06:23:57;5.00;99.90
10123;DHT22;5101;49.038;8.710;2022-12-07T06:26:22;5.00;99.90
10123;DHT22;5101;49.038;8.710;2022-12-07T06:28:48;5.00;99.90
10123;DHT22;5101;49.038;8.710;2022-12-07T06:31:13;5.00;99.90
10123;DHT22;5101;49.038;8.710;2022-12-07T06:33:39;5.00;99.90
10123;DHT22;5101;49.038;8.710;2022-12-07T06:36:05;5.00;99.90
10123;DHT22;5101;49.038;8.710;2022-12-07T06:38:30;5.00;99.90
10123;DHT22;5101;49.038;8.710;2022-12-07T06:40:56;4.90;99.90
10123;DHT22;5101;49.038;8.710;2022-12-07T06:43:21;5.00;99.90
10123;DHT22;5101;49.038;8.710;2022-12-07T06:45:47;5.00;99.90
10123;DHT22;5101;49.038;8.710;2022-12-07T06:48:12;5.30;99.90
10123;DHT22;5101;49.038;8.710;2022-12-07T06:50:37;4.90;99.90
10123;DHT22;5101;49.038;8.710;2022-12-07T06:53:03;4.90;99.90
10123;DHT22;5101;49.038;8.710;2022-12-07T06:55:28;5.30;99.90
10123;DHT22;5101;49.038;8.710;2022-12-07T06:57:54;5.20;99.90
10123;DHT22;5101;49.038;8.710;2022-12-07T07:00:20;4.90;99.90
10123;DHT22;5101;49.038;8.710;2022-12-07T07:02:45;4.90;99.90
10123;DHT22;5101;49.038;8.710;2022-12-07T07:05:11;4.90;99.90
10123;DHT22;5101;49.038;8.710;2022-12-07T07:07:36;4.90;99.90
10123;DHT22;5101;49.038;8.710;2022-12-07T07:10:02;4.90;99.90
10123;DHT22;5101;49.038;8.710;2022-12-07T07:12:28;4.80;99.90
10123;DHT22;5101;49.038;8.710;2022-12-07T07:14:53;4.80;99.90
10123;DHT22;5101;49.038;8.710;2022-12-07T07:17:19;4.90;99.90
10123;DHT22;5101;49.038;8.710;2022-12-07T07:19:44;4.90;99.90
10123;DHT22;5101;49.038;8.710;2022-12-07T07:22:10;5.20;99.90
10123;DHT22;5101;49.038;8.710;2022-12-07T07:24:35;4.80;99.90
10123;DHT22;5101;49.038;8.710;2022-12-07T07:27:01;4.90;99.90
10123;DHT22;5101;49.038;8.710;2022-12-07T07:29:26;4.90;99.90
10123;DHT22;5101;49.038;8.710;2022-12-07T07:31:52;4.90;99.90
10123;DHT22;5101;49.038;8.710;2022-12-07T07:34:17;5.20;99.90
10123;DHT22;5101;49.038;8.710;2022-12-07T07:36:43;4.90;99.90
10123;DHT22;5101;49.038;8.710;2022-12-07T07:39:09;4.90;99.90
10123;DHT22;5101;49.038;8.710;2022-12-07T07:41:35;5.00;99.90
10123;DHT22;5101;49.038;8.710;2022-12-07T07:44:00;4.90;99.90
10123;DHT22;5101;49.038;8.710;2022-12-07T07:46:26;4.90;99.90
10123;DHT22;5101;49.038;8.710;2022-12-07T07:48:51;4.90;99.90
10123;DHT22;5101;49.038;8.710;2022-12-07T07:51:17;4.90;99.90
10123;DHT22;5101;49.038;8.710;2022-12-07T07:53:42;5.00;99.90
10123;DHT22;5101;49.038;8.710;2022-12-07T07:56:08;5.00;99.90
10123;DHT22;5101;49.038;8.710;2022-12-07T07:58:33;5.00;99.90
10123;DHT22;5101;49.038;8.710;2022-12-07T08:01:04;5.00;99.90
10123;DHT22;5101;49.038;8.710;2022-12-07T08:03:30;5.00;99.90
10123;DHT22;5101;49.038;8.710;2022-12-07T08:05:56;5.00;99.90
10123;DHT22;5101;49.038;8.710;2022-12-07T08:08:21;5.00;99.90
10123;DHT22;5101;49.038;8.710;2022-12-07T08:10:46;5.10;99.90
10123;DHT22;5101;49.038;8.710;2022-12-07T08:13:13;5.20;99.90
10123;DHT22;5101;49.038;8.710;2022-12-07T08:15:42;5.40;99.90
10123;DHT22;5101;49.038;8.710;2022-12-07T08:18:08;5.10;99.90
10123;DHT22;5101;49.038;8.710;2022-12-07T08:20:35;5.10;99.90
10123;DHT22;5101;49.038;8.710;2022-12-07T08:23:01;5.10;99.90
10123;DHT22;5101;49.038;8.710;2022-12-07T08:25:27;5.10;99.90
10123;DHT22;5101;49.038;8.710;2022-12-07T08:27:53;5.40;99.90
10123;DHT22;5101;49.038;8.710;2022-12-07T08:30:19;5.20;99.90
10123;DHT22;5101;49.038;8.710;2022-12-07T08:32:46;5.20;99.90
10123;DHT22;5101;49.038;8.710;2022-12-07T08:35:12;5.20;99.90
10123;DHT22;5101;49.038;8.710;2022-12-07T08:37:38;5.20;99.90
10123;DHT22;5101;49.038;8.710;2022-12-07T08:40:06;5.20;99.90
10123;DHT22;5101;49.038;8.710;2022-12-07T08:42:31;5.20;99.90
10123;DHT22;5101;49.038;8.710;2022-12-07T08:45:06;5.30;99.90
10123;DHT22;5101;49.038;8.710;2022-12-07T08:47:32;5.30;99.90
10123;DHT22;5101;49.038;8.710;2022-12-07T08:49:58;5.30;99.90
10123;DHT22;5101;49.038;8.710;2022-12-07T08:52:31;5.30;99.90
10123;DHT22;5101;49.038;8.710;2022-12-07T08:54:58;5.30;99.90
10123;DHT22;5101;49.038;8.710;2022-12-07T08:57:24;5.30;99.90
10123;DHT22;5101;49.038;8.710;2022-12-07T08:59:50;5.30;99.90
10123;DHT22;5101;49.038;8.710;2022-12-07T09:02:15;5.50;99.90
10123;DHT22;5101;49.038;8.710;2022-12-07T09:04:41;5.60;99.90
10123;DHT22;5101;49.038;8.710;2022-12-07T09:07:06;5.40;99.90
10123;DHT22;5101;49.038;8.710;2022-12-07T09:09:32;5.40;99.90
10123;DHT22;5101;49.038;8.710;2022-12-07T09:11:58;5.50;99.90
10123;DHT22;5101;49.038;8.710;2022-12-07T09:14:23;5.50;99.90
10123;DHT22;5101;49.038;8.710;2022-12-07T09:16:49;5.60;99.90
10123;DHT22;5101;49.038;8.710;2022-12-07T09:19:14;5.70;99.90
10123;DHT22;5101;49.038;8.710;2022-12-07T09:21:40;5.60;99.90
10123;DHT22;5101;49.038;8.710;2022-12-07T09:24:06;5.60;99.90
10123;DHT22;5101;49.038;8.710;2022-12-07T09:26:31;5.60;99.90
10123;DHT22;5101;49.038;8.710;2022-12-07T09:28:57;5.60;99.90
10123;DHT22;5101;49.038;8.710;2022-12-07T09:31:22;5.60;99.90
10123;DHT22;5101;49.038;8.710;2022-12-07T09:33:56;5.60;99.90
10123;DHT22;5101;49.038;8.710;2022-12-07T09:36:22;5.70;99.90
10123;DHT22;5101;49.038;8.710;2022-12-07T09:38:48;5.90;99.90
10123;DHT22;5101;49.038;8.710;2022-12-07T09:41:13;5.90;99.90
10123;DHT22;5101;49.038;8.710;2022-12-07T09:43:40;5.70;99.90
10123;DHT22;5101;49.038;8.710;2022-12-07T09:46:05;5.70;99.90
10123;DHT22;5101;49.038;8.710;2022-12-07T09:48:36;5.70;99.90
10123;DHT22;5101;49.038;8.710;2022-12-07T09:51:03;6.00;99.90
10123;DHT22;5101;49.038;8.710;2022-12-07T09:53:38;5.80;99.90
10123;DHT22;5101;49.038;8.710;2022-12-07T09:56:04;5.90;99.90
10123;DHT22;5101;49.038;8.710;2022-12-07T09:58:31;6.00;99.90
10123;DHT22;5101;49.038;8.710;2022-12-07T10:01:01;6.20;99.90
10123;DHT22;5101;49.038;8.710;2022-12-07T10:03:30;6.30;99.90
10123;DHT22;5101;49.038;8.710;2022-12-07T10:05:56;6.30;99.90
10123;DHT22;5101;49.038;8.710;2022-12-07T10:08:22;6.50;99.90
10123;DHT22;5101;49.038;8.710;2022-12-07T10:10:53;6.80;99.90
10123;DHT22;5101;49.038;8.710;2022-12-07T10:13:33;7.10;99.90
10123;DHT22;5101;49.038;8.710;2022-12-07T10:15:59;7.20;99.90
10123;DHT22;5101;49.038;8.710;2022-12-07T10:18:33;7.20;99.90
10123;DHT22;5101;49.038;8.710;2022-12-07T10:21:16;7.30;99.90
10123;DHT22;5101;49.038;8.710;2022-12-07T10:24:02;7.30;99.90
10123;DHT22;5101;49.038;8.710;2022-12-07T10:26:49;7.30;99.90
10123;DHT22;5101;49.038;8.710;2022-12-07T10:29:24;7.20;99.90
10123;DHT22;5101;49.038;8.710;2022-12-07T10:34:26;7.00;99.90
10123;DHT22;5101;49.038;8.710;2022-12-07T10:36:52;7.20;99.90
10123;DHT22;5101;49.038;8.710;2022-12-07T10:39:22;6.90;99.90
10123;DHT22;5101;49.038;8.710;2022-12-07T10:42:00;6.90;99.90
10123;DHT22;5101;49.038;8.710;2022-12-07T10:44:29;7.00;99.90
10123;DHT22;5101;49.038;8.710;2022-12-07T10:47:25;6.90;99.90
10123;DHT22;5101;49.038;8.710;2022-12-07T10:50:04;6.80;99.90
10123;DHT22;5101;49.038;8.710;2022-12-07T10:53:03;6.70;99.90
10123;DHT22;5101;49.038;8.710;2022-12-07T10:55:56;6.80;99.90
10123;DHT22;5101;49.038;8.710;2022-12-07T10:58:53;6.80;99.90
10123;DHT22;5101;49.038;8.710;2022-12-07T11:07:13;6.60;99.90
10123;DHT22;5101;49.038;8.710;2022-12-07T11:09:57;6.50;99.90
10123;DHT22;5101;49.038;8.710;2022-12-07T11:18:06;6.30;99.90
10123;DHT22;5101;49.038;8.710;2022-12-07T11:23:18;6.30;99.90
10123;DHT22;5101;49.038;8.710;2022-12-07T11:26:34;6.30;99.90
10123;DHT22;5101;49.038;8.710;2022-12-07T11:29:35;6.30;99.90
10123;DHT22;5101;49.038;8.710;2022-12-07T11:32:31;6.20;99.90
10123;DHT22;5101;49.038;8.710;2022-12-07T11:37:39;6.20;99.90
10123;DHT22;5101;49.038;8.710;2022-12-07T11:40:26;6.30;99.90
10123;DHT22;5101;49.038;8.710;2022-12-07T11:43:09;6.10;99.90
10123;DHT22;5101;49.038;8.710;2022-12-07T11:45:42;6.10;99.90
10123;DHT22;5101;49.038;8.710;2022-12-07T11:48:20;6.30;99.90
10123;DHT22;5101;49.038;8.710;2022-12-07T11:50:59;6.10;99.90
10123;DHT22;5101;49.038;8.710;2022-12-07T11:53:37;6.10;99.90
10123;DHT22;5101;49.038;8.710;2022-12-07T11:56:13;6.10;99.90
10123;DHT22;5101;49.038;8.710;2022-12-07T12:06:31;6.20;99.90
10123;DHT22;5101;49.038;8.710;2022-12-07T12:09:11;6.20;99.90
10123;DHT22;5101;49.038;8.710;2022-12-07T12:17:13;6.20;99.90
10123;DHT22;5101;49.038;8.710;2022-12-07T12:22:43;6.20;99.90
10123;DHT22;5101;49.038;8.710;2022-12-07T12:25:21;6.20;99.90
10123;DHT22;5101;49.038;8.710;2022-12-07T12:27:49;6.40;99.90
10123;DHT22;5101;49.038;8.710;2022-12-07T12:33:05;6.30;99.90
10123;DHT22;5101;49.038;8.710;2022-12-07T12:35:37;6.30;99.90
10123;DHT22;5101;49.038;8.710;2022-12-07T12:38:26;6.40;99.90
10123;DHT22;5101;49.038;8.710;2022-12-07T12:40:55;6.30;99.90
10123;DHT22;5101;49.038;8.710;2022-12-07T12:43:43;6.40;99.90
10123;DHT22;5101;49.038;8.710;2022-12-07T12:48:56;6.50;99.90
10123;DHT22;5101;49.038;8.710;2022-12-07T12:51:40;6.30;99.90
10123;DHT22;5101;49.038;8.710;2022-12-07T12:54:19;6.50;99.90
10123;DHT22;5101;49.038;8.710;2022-12-07T12:56:55;6.40;99.90
10123;DHT22;5101;49.038;8.710;2022-12-07T13:01:47;6.40;99.90
10123;DHT22;5101;49.038;8.710;2022-12-07T13:06:51;6.60;99.90
10123;DHT22;5101;49.038;8.710;2022-12-07T13:09:35;6.40;99.90
10123;DHT22;5101;49.038;8.710;2022-12-07T13:12:04;6.40;99.90
10123;DHT22;5101;49.038;8.710;2022-12-07T13:14:52;6.50;99.90
10123;DHT22;5101;49.038;8.710;2022-12-07T13:20:00;6.60;99.90
10123;DHT22;5101;49.038;8.710;2022-12-07T13:25:28;6.50;99.90
10123;DHT22;5101;49.038;8.710;2022-12-07T13:28:17;6.50;99.90
10123;DHT22;5101;49.038;8.710;2022-12-07T13:31:02;6.60;99.90
10123;DHT22;5101;49.038;8.710;2022-12-07T13:33:30;6.50;99.90
10123;DHT22;5101;49.038;8.710;2022-12-07T13:35:56;6.50;99.90
10123;DHT22;5101;49.038;8.710;2022-12-07T13:38:34;6.50;99.90
10123;DHT22;5101;49.038;8.710;2022-12-07T13:41:03;6.50;99.90
10123;DHT22;5101;49.038;8.710;2022-12-07T13:43:29;6.70;99.90
10123;DHT22;5101;49.038;8.710;2022-12-07T13:45:58;6.50;99.90
10123;DHT22;5101;49.038;8.710;2022-12-07T13:48:48;6.70;99.90
10123;DHT22;5101;49.038;8.710;2022-12-07T13:51:21;6.60;99.90
10123;DHT22;5101;49.038;8.710;2022-12-07T13:53:55;6.60;99.90
10123;DHT22;5101;49.038;8.710;2022-12-07T13:56:23;6.60;99.90
10123;DHT22;5101;49.038;8.710;2022-12-07T13:58:51;6.70;99.90
10123;DHT22;5101;49.038;8.710;2022-12-07T14:01:16;6.60;99.90
10123;DHT22;5101;49.038;8.710;2022-12-07T14:03:42;6.60;99.90
10123;DHT22;5101;49.038;8.710;2022-12-07T14:06:24;6.70;99.90
10123;DHT22;5101;49.038;8.710;2022-12-07T14:09:17;6.70;99.90
10123;DHT22;5101;49.038;8.710;2022-12-07T14:11:43;6.70;99.90
10123;DHT22;5101;49.038;8.710;2022-12-07T14:14:36;6.70;99.90
10123;DHT22;5101;49.038;8.710;2022-12-07T14:17:15;6.70;99.90
10123;DHT22;5101;49.038;8.710;2022-12-07T14:24:46;6.60;99.90
10123;DHT22;5101;49.038;8.710;2022-12-07T14:27:19;6.60;99.90
10123;DHT22;5101;49.038;8.710;2022-12-07T14:29:45;6.60;99.90
10123;DHT22;5101;49.038;8.710;2022-12-07T14:32:26;6.70;99.90
10123;DHT22;5101;49.038;8.710;2022-12-07T14:37:20;6.60;99.90
10123;DHT22;5101;49.038;8.710;2022-12-07T14:39:45;6.60;99.90
10123;DHT22;5101;49.038;8.710;2022-12-07T14:42:11;6.70;99.90
10123;DHT22;5101;49.038;8.710;2022-12-07T14:44:36;6.70;99.90
10123;DHT22;5101;49.038;8.710;2022-12-07T14:47:02;6.70;99.90
10123;DHT22;5101;49.038;8.710;2022-12-07T14:49:27;6.70;99.90
10123;DHT22;5101;49.038;8.710;2022-12-07T14:51:53;6.70;99.90
10123;DHT22;5101;49.038;8.710;2022-12-07T14:54:20;6.60;99.90
10123;DHT22;5101;49.038;8.710;2022-12-07T14:56:46;6.60;99.90
10123;DHT22;5101;49.038;8.710;2022-12-07T14:59:16;6.60;99.90
10123;DHT22;5101;49.038;8.710;2022-12-07T15:01:42;6.60;99.90
10123;DHT22;5101;49.038;8.710;2022-12-07T15:04:08;6.60;99.90
10123;DHT22;5101;49.038;8.710;2022-12-07T15:06:33;6.60;99.90
10123;DHT22;5101;49.038;8.710;2022-12-07T15:08:59;6.50;99.90
10123;DHT22;5101;49.038;8.710;2022-12-07T15:11:24;6.50;99.90
10123;DHT22;5101;49.038;8.710;2022-12-07T15:13:50;6.40;99.90
10123;DHT22;5101;49.038;8.710;2022-12-07T15:16:37;6.40;99.90
10123;DHT22;5101;49.038;8.710;2022-12-07T15:19:05;6.40;99.90
10123;DHT22;5101;49.038;8.710;2022-12-07T15:21:31;6.50;99.90
10123;DHT22;5101;49.038;8.710;2022-12-07T15:23:56;6.40;99.90
10123;DHT22;5101;49.038;8.710;2022-12-07T15:26:22;6.40;99.90
10123;DHT22;5101;49.038;8.710;2022-12-07T15:28:47;6.40;99.90
10123;DHT22;5101;49.038;8.710;2022-12-07T15:31:14;6.40;99.90
10123;DHT22;5101;49.038;8.710;2022-12-07T15:33:40;6.40;99.90
10123;DHT22;5101;49.038;8.710;2022-12-07T15:36:06;6.50;99.90
10123;DHT22;5101;49.038;8.710;2022-12-07T15:38:32;6.30;99.90
10123;DHT22;5101;49.038;8.710;2022-12-07T15:40:57;6.20;99.90
10123;DHT22;5101;49.038;8.710;2022-12-07T15:43:23;6.20;99.90
10123;DHT22;5101;49.038;8.710;2022-12-07T15:46:07;6.10;99.90
10123;DHT22;5101;49.038;8.710;2022-12-07T15:48:33;6.30;99.90
10123;DHT22;5101;49.038;8.710;2022-12-07T15:51:03;6.30;99.90
10123;DHT22;5101;49.038;8.710;2022-12-07T15:53:29;6.10;99.90
10123;DHT22;5101;49.038;8.710;2022-12-07T15:55:54;6.10;99.90
10123;DHT22;5101;49.038;8.710;2022-12-07T15:58:20;6.10;99.90
10123;DHT22;5101;49.038;8.710;2022-12-07T16:00:45;6.00;99.90
10123;DHT22;5101;49.038;8.710;2022-12-07T16:03:12;6.00;99.90
10123;DHT22;5101;49.038;8.710;2022-12-07T16:05:37;5.90;99.90
10123;DHT22;5101;49.038;8.710;2022-12-07T16:08:03;6.10;99.90
10123;DHT22;5101;49.038;8.710;2022-12-07T16:10:28;5.90;99.90
10123;DHT22;5101;49.038;8.710;2022-12-07T16:12:54;5.90;99.90
10123;DHT22;5101;49.038;8.710;2022-12-07T16:15:19;6.00;99.90
10123;DHT22;5101;49.038;8.710;2022-12-07T16:17:45;6.10;99.90
10123;DHT22;5101;49.038;8.710;2022-12-07T16:20:10;5.80;99.90
10123;DHT22;5101;49.038;8.710;2022-12-07T16:22:36;5.80;99.90
10123;DHT22;5101;49.038;8.710;2022-12-07T16:25:01;5.80;99.90
10123;DHT22;5101;49.038;8.710;2022-12-07T16:27:27;5.80;99.90
10123;DHT22;5101;49.038;8.710;2022-12-07T16:29:52;5.70;99.90
10123;DHT22;5101;49.038;8.710;2022-12-07T16:32:18;5.80;99.90
10123;DHT22;5101;49.038;8.710;2022-12-07T16:34:43;5.80;99.90
10123;DHT22;5101;49.038;8.710;2022-12-07T16:37:09;5.80;99.90
10123;DHT22;5101;49.038;8.710;2022-12-07T16:39:34;5.90;99.90
10123;DHT22;5101;49.038;8.710;2022-12-07T16:42:00;5.70;99.90
10123;DHT22;5101;49.038;8.710;2022-12-07T16:44:26;5.70;99.90
10123;DHT22;5101;49.038;8.710;2022-12-07T16:46:51;5.70;99.90
10123;DHT22;5101;49.038;8.710;2022-12-07T16:49:17;5.80;99.90
10123;DHT22;5101;49.038;8.710;2022-12-07T16:51:43;5.70;99.90
10123;DHT22;5101;49.038;8.710;2022-12-07T16:54:11;5.60;99.90
10123;DHT22;5101;49.038;8.710;2022-12-07T16:56:37;5.80;99.90
10123;DHT22;5101;49.038;8.710;2022-12-07T16:59:02;5.80;99.90
10123;DHT22;5101;49.038;8.710;2022-12-07T17:01:28;5.60;99.90
10123;DHT22;5101;49.038;8.710;2022-12-07T17:03:54;5.60;99.90
10123;DHT22;5101;49.038;8.710;2022-12-07T17:06:23;5.60;99.90
10123;DHT22;5101;49.038;8.710;2022-12-07T17:08:50;5.60;99.90
10123;DHT22;5101;49.038;8.710;2022-12-07T17:11:19;5.60;99.90
10123;DHT22;5101;49.038;8.710;2022-12-07T17:13:46;5.60;99.90
10123;DHT22;5101;49.038;8.710;2022-12-07T17:16:30;5.60;99.90
10123;DHT22;5101;49.038;8.710;2022-12-07T17:18:56;5.80;99.90
10123;DHT22;5101;49.038;8.710;2022-12-07T17:21:22;5.80;99.90
10123;DHT22;5101;49.038;8.710;2022-12-07T17:23:48;5.80;99.90
10123;DHT22;5101;49.038;8.710;2022-12-07T17:26:19;5.60;99.90
10123;DHT22;5101;49.038;8.710;2022-12-07T17:28:46;5.50;99.90
10123;DHT22;5101;49.038;8.710;2022-12-07T17:31:14;5.50;99.90
10123;DHT22;5101;49.038;8.710;2022-12-07T17:33:39;5.50;99.90
10123;DHT22;5101;49.038;8.710;2022-12-07T17:36:14;5.50;99.90
10123;DHT22;5101;49.038;8.710;2022-12-07T17:38:40;5.50;99.90
10123;DHT22;5101;49.038;8.710;2022-12-07T17:41:14;5.50;99.90
10123;DHT22;5101;49.038;8.710;2022-12-07T17:44:04;5.50;99.90
10123;DHT22;5101;49.038;8.710;2022-12-07T17:46:30;5.40;99.90